Flight Track Log - Related Links

Times and Time Zones

All times are in EDT time to prevent confusion due to time zone crossing. See the N9003S flight status page for this flight to view local times or setup timezone preferences in your user account.

Time Position Orientation Groundspeed Altitude Reporting Facility
EDT Latitude Longitude Course Direction KTS MPH feet Rate Location/Type
Sun 07:43:02 AM 36.0933 -75.7386 335° Northwest 137 158 5,300  Level Washington Center
Sun 07:44:13 AM 36.1372 -75.7411 357° North 142 163 6,100 687 Climbing Washington Center
Sun 07:45:13 AM 36.1747 -75.7489 350° North 137 158 6,800 458 Climbing Washington Center
Sun 07:46:11 AM 36.2081 -75.7697 333° Northwest 137 158 7,000 102 Climbing Washington Center
Sun 07:47:11 AM 36.2456 -75.8031 324° Northwest 143 165 7,000 -53 Level Washington Center
Sun 07:48:00 AM 36.1867 -75.7924 335° Northwest  Level FlightAware Approximate
Sun 07:48:04 AM 36.2767 -75.8367 319° Northwest 167 192 6,900  Level Washington Center
Sun 07:48:58 AM 36.3100 -75.8678 323° Northwest 168 193 6,900  Level Washington Center
Sun 07:49:59 AM 36.3558 -75.8808 347° North 178 205 6,900  Level Washington Center
Sun 07:50:59 AM 36.3956 -75.8450 36° Northeast 176 203 6,900  Level Washington Center
Sun 07:52:07 AM 36.4478 -75.8475 358° North 169 194 6,900  Level Washington Center
Sun 07:53:02 AM 36.4894 -75.8556 351° North 173 199 6,900  Level Washington Center
Sun 07:53:51 AM 36.5269 -75.8633 351° North 174 200 6,900  Level Washington Center
Sun 07:54:48 AM 36.5750 -75.8686 355° North 173 199 6,900  Level Washington Center
Sun 07:55:49 AM 36.6231 -75.8767 352° North 171 197 6,900  Level Washington Center
Sun 07:56:50 AM 36.6711 -75.8794 357° North 173 199 6,900  Level Washington Center
Sun 07:57:56 AM 36.7272 -75.8872 354° North 172 198 6,900  Level Washington Center
Sun 07:58:46 AM 36.7647 -75.8900 357° North 169 194 6,900  Level Washington Center
Sun 07:59:47 AM 36.8108 -75.8956 354° North 171 197 6,900  Level Washington Center
Sun 08:00:53 AM 36.8650 -75.9008 356° North 171 197 6,900  Level Washington Center
Sun 08:01:54 AM 36.9108 -75.9011 360° North 171 197 6,900  Level Washington Center
Sun 08:02:49 AM 36.9547 -75.9089 352° North 171 197 6,900  Level Washington Center
Sun 08:03:49 AM 37.0025 -75.9117 357° North 172 198 6,900  Level Washington Center
Sun 08:04:51 AM 37.0486 -75.9172 355° North 170 196 6,900  Level Washington Center
Sun 08:05:55 AM 37.1028 -75.9225 356° North 169 194 6,900  Level Washington Center
Sun 08:07:04 AM 37.1547 -75.9281 355° North 169 194 6,900  Level Washington Center
Sun 08:08:05 AM 37.2008 -75.9308 357° North 171 197 6,900  Level Washington Center
Sun 08:08:59 AM 37.2444 -75.9336 357° North 172 198 6,900  Level Washington Center
Sun 08:10:04 AM 37.2967 -75.9417 353° North 171 197 6,900  Level Washington Center
Sun 08:11:05 AM 37.3447 -75.9419 360° North 171 197 6,900  Level Washington Center
Sun 08:12:06 AM 37.3967 -75.9500 353° North 173 199 6,900  Level Washington Center
Sun 08:13:13 AM 37.4489 -75.9528 358° North 172 198 6,900 -62 Level Washington Center
Sun 08:13:43 AM 37.4719 -75.9556 355° North 176 203 6,800 -66 Descending Washington Center
Sun 08:14:44 AM 37.5178 -75.9611 355° North 170 196 6,800 99 Level Washington Center
Sun 08:15:44 AM 37.5656 -75.9639 357° North 168 193 7,000 99 Climbing Washington Center
Sun 08:16:45 AM 37.6136 -75.9667 357° North 169 194 7,000  Level Washington Center
Sun 08:17:46 AM 37.6597 -75.9328 30° Northeast 195 224 7,000  Level Washington Center
Sun 08:18:47 AM 37.7036 -75.9094 23° Northeast 173 199 7,000  Level Washington Center
Sun 08:19:46 AM 37.7475 -75.8806 27° Northeast 173 199 7,000  Level Washington Center
Sun 08:20:49 AM 37.7911 -75.8544 25° Northeast 174 200 7,000  Level Washington Center
Sun 08:21:49 AM 37.8350 -75.8258 27° Northeast 176 203 7,000  Level Washington Center
Sun 08:22:48 AM 37.8769 -75.7997 26° Northeast 175 201 7,000  Level Washington Center
Sun 08:23:49 AM 37.9206 -75.7708 28° Northeast 177 204 7,000  Level Washington Center
Sun 08:24:51 AM 37.9667 -75.7444 24° Northeast 173 199 7,000  Level Washington Center
Sun 08:25:52 AM 38.0103 -75.7208 23° Northeast 171 197 7,000  Level Washington Center
Sun 08:26:59 AM 38.0564 -75.6894 28° Northeast 172 198 7,000  Level Washington Center
Sun 08:27:57 AM 38.1022 -75.6631 24° Northeast 172 198 7,000  Level Washington Center
Sun 08:28:58 AM 38.1439 -75.6367 26° Northeast 171 197 7,000  Level Washington Center
Sun 08:29:58 AM 38.1897 -75.6103 24° Northeast 170 196 7,000  Level Washington Center
Sun 08:30:59 AM 38.2336 -75.5839 25° Northeast 171 197 7,000  Level Washington Center
Sun 08:32:00 AM 38.2775 -75.5547 28° Northeast 172 198 7,000  Level Washington Center
Sun 08:33:00 AM 38.3211 -75.5281 26° Northeast 171 197 7,000  Level Washington Center
Sun 08:34:00 AM 38.3568 -75.4849 27° Northeast  Level FlightAware Approximate
Sun 08:41:00 AM 38.6530 -75.2946 27° Northeast  Level FlightAware Approximate
Sun 08:42:00 AM 38.6954 -75.2674 27° Northeast  Level FlightAware Approximate
Sun 08:43:00 AM 38.7377 -75.2402 27° Northeast  Level FlightAware Approximate
Sun 08:44:00 AM 38.7800 -75.2129 27° Northeast  Level FlightAware Approximate
Sun 08:45:00 AM 38.8231 -75.1876 23° Northeast  Level FlightAware Approximate
Sun 08:46:00 AM 38.8630 -75.1567 31° Northeast  Level FlightAware Approximate
Sun 08:47:00 AM 38.9029 -75.1257 31° Northeast  Level FlightAware Approximate
Sun 08:48:00 AM 38.9427 -75.0946 31° Northeast  Level FlightAware Approximate
Sun 08:49:00 AM 38.9826 -75.0636 31° Northeast  Level FlightAware Approximate
Sun 08:49:00 AM 39.0164 -75.0919 32° Northeast 174 200 7,000  Level Washington Center
Sun 08:50:00 AM 39.0223 -75.0319 32° Northeast  Level FlightAware Approximate
Sun 08:50:00 AM 39.0580 -75.0648 27° Northeast  Level Estimated
Sun 08:51:00 AM 39.0617 -74.9999 32° Northeast  Level FlightAware Approximate
Sun 08:52:00 AM 39.1011 -74.9678 32° Northeast  Level FlightAware Approximate
Sun 08:53:00 AM 39.1405 -74.9357 32° Northeast  Level FlightAware Approximate
Sun 08:53:00 AM 39.1953 -74.9944 27° Northeast 177 204 7,000  Level Washington Center
Sun 08:54:00 AM 39.1799 -74.9036 32° Northeast  Level FlightAware Approximate
Sun 08:54:00 AM 39.2367 -74.9668 27° Northeast  Level Estimated
Sun 08:57:00 AM 39.3488 -74.8738 27° Northeast  Level Estimated
Sun 08:57:02 AM 39.3592 -74.8642 27° Northeast 179 206 7,000  Level Washington Center
Sun 08:58:00 AM 39.3903 -74.8464 27° Northeast  Level Estimated
Sun 08:59:00 AM 39.4409 -74.8103 27° Northeast  Level Estimated
Sun 09:01:00 AM 39.5264 -74.7726 27° Northeast  Level Estimated
Sun 09:02:00 AM 39.5678 -74.7447 27° Northeast  Level Estimated
Sun 09:06:00 AM 39.7314 -74.6176 27° Northeast  Level Estimated
Sun 09:07:00 AM 39.7729 -74.5899 27° Northeast  Level Estimated
Sun 09:08:00 AM 39.8144 -74.5622 27° Northeast  Level Estimated
Sun 09:09:00 AM 39.8559 -74.5345 27° Northeast  Level Estimated
Sun 09:10:00 AM 39.8974 -74.5068 27° Northeast  Level Estimated
Sun 09:11:00 AM 39.9388 -74.4790 27° Northeast  Level Estimated
Sun 09:12:00 AM 39.9803 -74.4511 27° Northeast  Level Estimated
Sun 09:13:00 AM 40.0219 -74.4231 27° Northeast  Level Estimated
Sun 09:14:00 AM 40.0634 -74.3951 27° Northeast  Level Estimated
Sun 09:15:00 AM 40.1050 -74.3671 27° Northeast  Level Estimated
Sun 09:16:00 AM 40.1466 -74.3390 27° Northeast  Level Estimated
Sun 09:17:00 AM 40.1882 -74.3109 27° Northeast  Level Estimated
Sun 09:18:00 AM 40.2298 -74.2828 27° Northeast  Level Estimated
Sun 09:19:00 AM 40.2713 -74.2546 27° Northeast  Level Estimated
Sun 09:20:00 AM 40.3129 -74.2264 27° Northeast  Level Estimated
Sun 09:20:52 AM 40.3500 -74.1500 27° Northeast 177 204 2,500  Level New York TRACON
Sun 09:21:00 AM 40.3544 -74.1982 27° Northeast  Level Estimated
Sun 09:21:52 AM 40.3833 -74.1333 21° North 175 201 2,500  Level New York TRACON
Sun 09:22:00 AM 40.3960 -74.1699 27° Northeast  Level Estimated
Sun 09:22:52 AM 40.4333 -74.1167 14° North 174 200 2,500  Level New York TRACON
Sun 09:23:00 AM 40.4375 -74.1416 27° Northeast  Level Estimated
Sun 09:23:52 AM 40.4833 -74.0833 27° Northeast 174 200 2,500  Level New York TRACON
Sun 09:24:00 AM 40.4790 -74.1132 27° Northeast  Level Estimated
Sun 09:24:52 AM 40.5333 -74.0667 14° North 172 198 2,500  Level New York TRACON
Sun 09:25:00 AM 40.5205 -74.0849 27° Northeast  Level Estimated
Sun 09:25:52 AM 40.5667 -74.0500 21° North 173 199 2,400  Level New York TRACON
Sun 09:26:00 AM 40.5620 -74.0564 27° Northeast  Level Estimated

Login

Don't have an account? Register now (free) for customized features, flight alerts, and more!